Camair E145 at Yaounde on May 21st 2021, runway excursion on landing

Last Update: May 22, 2021 / 15:20:51 GMT/Zulu time

Bookmark this article
Incident Facts

Date of incident
May 21, 2021

Classification
Incident

Airline
Camair Co

Flight number
QC-206

Aircraft Registration
TJ-KMM

Aircraft Type
Embraer ERJ-145

ICAO Type Designator
E145

A Camair Embraer ERJ-145, registration TJ-KMM performing flight QC-206 from Douala to Yaounde Nsimalen (Cameroon) with 31 passengers and 4 crew, landed on runway 19 at about 19:15L (18:15Z) but went off the left hand edge of the runway while landing at Yaounde's Nsimalen Airport. The aircraft came to a stop with all gear on soft ground. There were no injuries, the aircraft received minor if any damage.

The airline reported the aircraft suffered a runway excursion due to very bad weather conditions. There were no injuries and no damage to the aircraft. All occupants disembarked normally.

Metars:
FKYS 212000Z 03006KT 010V070 6000 -TSRA BKN006 FEW020CB 21/21 Q1018 TEMPO 4000 TSRA=
FKYS 211900Z VRB02KT 3500 TSRA BKN006 FEW020CB 21/20 Q1017 TEMPO 2500 TSRA=
FKYS 211800Z 28003KT 200V300 7000 -TSRA BKN010 FEW020CB 26/23 Q1015 NOSIG=
FKYS 211700Z VRB02KT 8000 BKN020 FEW023TCU 28/22 Q1014 BECMG TS BKN013 FEW020CB=
FKYS 211600Z VRB02KT 8000 BKN020 FEW023TCU 29/23 Q1013 NOSIG=
FKYS 211500Z 24003KT 210V280 8000 BKN020 29/23 Q1013 NOSIG=
FKYS 211400Z 25003KT 210V310 8000 BKN020 29/22 Q1014 NOSIG=
Incident Facts

Date of incident
May 21, 2021

Classification
Incident

Airline
Camair Co

Flight number
QC-206

Aircraft Registration
TJ-KMM

Aircraft Type
Embraer ERJ-145

ICAO Type Designator
E145

This article is published under license from Avherald.com. © of text by Avherald.com.
Article source

You can read 4 more free articles without a subscription.

Subscribe now and continue reading without any limits!

Are you a subscriber?
Login
Subscribe

Read unlimited articles and receive our daily update briefing. Gain better insights into what is happening in commercial aviation safety.

Free newsletter

Want to know more and stay ahead? Get our free weekly newsletter and join 4941 existing subscribers.

By subscribing, you accept our terms and conditions and confirm that you've read our privacy policy.

Send tip

Support AeroInside by sending a small tip amount.

Related articles

Newest articles

Subscribe today

Are you researching aviation incidents? Get access to AeroInside Insights, unlimited read access and receive the daily newsletter.

Pick your plan and subscribe

Partner

Blockaviation logo

A new way to document and demonstrate airworthiness compliance and aircraft value. Find out more.

Virtual Speech logo

ELITE Simulation Solutions is a leading global provider of Flight Simulation Training Devices, IFR training software as well as flight controls and related services. Find out more.

Get updates

Never miss an article from AeroInside. Subscribe to our free weekly newsletter and join 4941 existing subscribers.

By subscribing, you accept our terms and conditions and that you've read our privacy policy.

AeroInside Blog
Popular aircraft
Airbus A320
Boeing 737-800
Boeing 737-800 MAX
Popular airlines
American Airlines
United
Delta
Air Canada
Lufthansa
British Airways